createdAt,value
2024-02-14T00:01:38.307Z,99513.37
2024-02-14T00:04:08.876Z,99514.45
2024-02-14T00:06:37.908Z,99511.69
2024-02-14T00:09:05.967Z,99514.69
2024-02-14T00:11:34.170Z,99511.98
2024-02-14T00:14:01.987Z,99514.14
2024-02-14T00:17:02.042Z,99516.77
2024-02-14T00:19:29.958Z,99516.17
2024-02-14T00:21:57.778Z,99520.70
2024-02-14T00:24:28.087Z,99524.73
2024-02-14T00:26:57.020Z,99526.11
2024-02-14T00:29:27.807Z,99527.50
2024-02-14T00:31:55.671Z,99528.71
2024-02-14T00:34:23.745Z,99527.95
2024-02-14T00:36:51.763Z,99530.42
2024-02-14T00:39:19.524Z,99530.16
2024-02-14T00:41:48.664Z,99531.88
2024-02-14T00:44:18.100Z,99531.66
2024-02-14T00:46:45.914Z,99533.15
2024-02-14T00:49:14.905Z,99536.16
2024-02-14T00:51:42.865Z,99530.88
2024-02-14T00:54:10.689Z,99530.44
2024-02-14T00:56:38.659Z,99532.68
2024-02-14T00:59:07.298Z,99535.02
2024-02-14T01:01:35.737Z,99538.59
2024-02-14T01:04:04.134Z,99536.84
2024-02-14T01:06:32.519Z,99539.42
2024-02-14T01:09:00.817Z,99539.60
2024-02-14T01:11:29.823Z,99539.45
2024-02-14T01:13:57.701Z,99541.98
2024-02-14T01:16:27.354Z,99545.82
2024-02-14T01:18:55.295Z,99543.07
2024-02-14T01:21:23.287Z,99541.68
2024-02-14T01:23:51.131Z,99538.84
2024-02-14T01:26:18.993Z,99535.93
2024-02-14T01:28:46.833Z,99537.36
2024-02-14T01:31:14.778Z,99538.80
2024-02-14T01:33:42.844Z,99540.86
2024-02-14T01:36:10.840Z,99539.92
2024-02-14T01:38:38.712Z,99543.94
2024-02-14T01:41:07.000Z,99545.44
2024-02-14T01:43:34.812Z,99546.42
2024-02-14T01:46:12.226Z,99546.94
2024-02-14T01:48:41.442Z,99545.19
2024-02-14T01:51:12.585Z,99544.25
2024-02-14T01:53:41.337Z,99545.58
2024-02-14T01:56:09.196Z,99549.20
2024-02-14T01:58:38.980Z,99552.55
2024-02-14T02:01:07.011Z,99550.53
2024-02-14T02:03:37.778Z,99553.99
2024-02-14T02:06:08.013Z,99555.03
2024-02-14T02:08:36.969Z,99556.67
2024-02-14T02:11:05.125Z,99558.83
2024-02-14T02:13:33.018Z,99560.20
2024-02-14T02:16:06.084Z,99561.92
2024-02-14T02:18:34.059Z,99563.13
2024-02-14T02:21:05.351Z,99566.45
2024-02-14T02:23:34.082Z,99566.25
2024-02-14T02:26:03.297Z,99567.30
2024-02-14T02:28:31.116Z,99567.62
2024-02-14T02:30:58.999Z,99570.39
2024-02-14T02:33:27.754Z,99574.47
2024-02-14T02:35:56.131Z,99578.52
2024-02-14T02:38:24.617Z,99580.48
2024-02-14T02:40:52.447Z,99581.12
2024-02-14T02:43:20.900Z,99579.17
2024-02-14T02:45:48.706Z,99581.33
2024-02-14T02:48:16.648Z,99582.34
2024-02-14T02:50:45.891Z,99589.20
2024-02-14T02:53:14.059Z,99587.27
2024-02-14T02:55:42.374Z,99588.05
2024-02-14T02:58:11.350Z,99584.89
2024-02-14T03:00:39.216Z,99585.92
2024-02-14T03:03:09.743Z,99586.02
2024-02-14T03:05:37.900Z,99589.80
2024-02-14T03:08:06.152Z,99587.11
2024-02-14T03:10:33.951Z,99591.15
2024-02-14T03:13:01.740Z,99592.98
2024-02-14T03:15:30.055Z,99593.52
2024-02-14T03:17:58.085Z,99598.56
2024-02-14T03:20:26.281Z,99598.54
2024-02-14T03:22:55.190Z,99599.38
2024-02-14T03:25:24.939Z,99601.51
2024-02-14T03:27:54.398Z,99602.67
2024-02-14T03:30:23.716Z,99598.92
2024-02-14T03:32:52.928Z,99601.59
2024-02-14T03:35:23.055Z,99607.69
2024-02-14T03:37:54.086Z,99611.10
2024-02-14T03:40:22.479Z,99614.25
2024-02-14T03:42:50.319Z,99615.44
2024-02-14T03:45:18.174Z,99614.76
2024-02-14T03:47:46.152Z,99618.55
2024-02-14T03:50:14.061Z,99618.05
2024-02-14T03:52:43.709Z,99619.77
2024-02-14T03:55:14.844Z,99617.54
2024-02-14T03:57:43.326Z,99618.95
2024-02-14T04:00:12.817Z,99622.63
2024-02-14T04:02:41.672Z,99620.00
2024-02-14T04:05:10.267Z,99619.66
2024-02-14T04:07:39.152Z,99620.36
2024-02-14T04:10:08.032Z,99622.58
2024-02-14T04:12:35.827Z,99622.11
2024-02-14T04:15:04.420Z,99622.41
2024-02-14T04:17:32.613Z,99626.05
2024-02-14T04:20:00.775Z,99627.66
2024-02-14T04:22:28.867Z,99632.98
2024-02-14T04:24:57.499Z,99634.17
2024-02-14T04:27:25.288Z,99632.76
2024-02-14T04:29:53.102Z,99632.23
2024-02-14T04:32:21.066Z,99632.54
2024-02-14T04:34:50.104Z,99632.71
2024-02-14T04:37:20.019Z,99633.91
2024-02-14T04:39:48.024Z,99634.95
2024-02-14T04:42:16.034Z,99640.74
2024-02-14T04:44:43.947Z,99639.88
2024-02-14T04:47:11.805Z,99636.89
2024-02-14T04:49:39.631Z,99642.46
2024-02-14T04:52:08.838Z,99641.23
2024-02-14T04:54:36.776Z,99644.76
2024-02-14T04:57:05.806Z,99645.89
2024-02-14T04:59:33.735Z,99647.66
2024-02-14T05:02:02.029Z,99649.55
2024-02-14T05:04:30.973Z,99655.77
2024-02-14T05:06:59.773Z,99655.08
2024-02-14T05:09:27.871Z,99655.64
2024-02-14T05:11:55.748Z,99654.20
2024-02-14T05:14:24.729Z,99657.52
2024-02-14T05:16:52.942Z,99655.74
2024-02-14T05:19:23.150Z,99657.16
2024-02-14T05:21:51.159Z,99663.78
2024-02-14T05:24:19.048Z,99662.58
2024-02-14T05:26:46.939Z,99660.09
2024-02-14T05:29:15.108Z,99661.64
2024-02-14T05:31:47.545Z,99662.88
2024-02-14T05:34:15.839Z,99665.00
2024-02-14T05:36:44.139Z,99660.28
2024-02-14T05:39:12.108Z,99663.83
2024-02-14T05:41:39.991Z,99667.36
2024-02-14T05:44:08.051Z,99666.83
2024-02-14T05:46:35.962Z,99667.86
2024-02-14T05:49:03.873Z,99673.07
2024-02-14T05:51:33.010Z,99678.30
2024-02-14T05:54:01.411Z,99675.48
2024-02-14T05:56:29.820Z,99677.58
2024-02-14T05:58:57.734Z,99678.61
2024-02-14T06:01:26.139Z,99681.21
2024-02-14T06:03:53.978Z,99682.58
2024-02-14T06:06:22.067Z,99686.61
2024-02-14T06:08:49.942Z,99691.17
2024-02-14T06:11:17.873Z,99690.26
2024-02-14T06:13:45.703Z,99690.27
2024-02-14T06:16:13.595Z,99692.94
2024-02-14T06:18:41.918Z,99696.20
2024-02-14T06:21:09.907Z,99698.96
2024-02-14T06:23:38.973Z,99699.47
2024-02-14T06:26:07.468Z,99701.39
2024-02-14T06:28:35.252Z,99699.46
2024-02-14T06:31:03.425Z,99700.55
2024-02-14T06:33:31.566Z,99702.81
2024-02-14T06:35:59.643Z,99708.38
2024-02-14T06:38:27.588Z,99708.10
2024-02-14T06:40:55.576Z,99703.55
2024-02-14T06:43:23.404Z,99708.23
2024-02-14T06:45:51.200Z,99709.06
2024-02-14T06:48:23.162Z,99710.64
2024-02-14T06:50:54.204Z,99709.24
2024-02-14T06:53:22.112Z,99710.16
2024-02-14T06:55:49.965Z,99709.90
2024-02-14T06:58:17.801Z,99715.46
2024-02-14T07:00:45.747Z,99719.28
2024-02-14T07:03:13.686Z,99722.24
2024-02-14T07:05:43.287Z,99720.29
2024-02-14T07:08:11.235Z,99720.11
2024-02-14T07:10:39.060Z,99724.08
2024-02-14T07:13:06.892Z,99721.87
2024-02-14T07:15:35.075Z,99721.95
2024-02-14T07:18:03.473Z,99718.59
2024-02-14T07:20:31.555Z,99719.34
2024-02-14T07:22:59.440Z,99720.14
2024-02-14T07:25:27.564Z,99722.73
2024-02-14T07:27:55.564Z,99719.91
2024-02-14T07:30:23.557Z,99721.17
2024-02-14T07:32:52.326Z,99722.36
2024-02-14T07:35:20.483Z,99717.89
2024-02-14T07:37:49.607Z,99722.17
2024-02-14T07:40:18.647Z,99723.46
2024-02-14T07:42:46.955Z,99724.80
2024-02-14T07:45:15.319Z,99726.42
2024-02-14T07:47:43.370Z,99728.05
2024-02-14T07:50:12.040Z,99730.14
2024-02-14T07:52:46.009Z,99729.39
2024-02-14T07:55:14.452Z,99731.95
2024-02-14T07:57:43.283Z,99729.93
2024-02-14T08:00:11.814Z,99730.52
2024-02-14T08:02:39.795Z,99728.73
2024-02-14T08:05:07.878Z,99727.05
2024-02-14T08:07:35.726Z,99731.45
2024-02-14T08:10:03.700Z,99731.20
2024-02-14T08:12:31.702Z,99732.33
2024-02-14T08:14:59.606Z,99736.55
2024-02-14T08:17:27.809Z,99736.12
2024-02-14T08:19:55.796Z,99738.89
2024-02-14T08:22:23.763Z,99740.73
2024-02-14T08:24:51.554Z,99742.05
2024-02-14T08:27:19.580Z,99741.40
2024-02-14T08:29:47.687Z,99741.78
2024-02-14T08:32:15.931Z,99742.21
2024-02-14T08:34:43.824Z,99742.23
2024-02-14T08:37:11.953Z,99739.16
2024-02-14T08:39:39.751Z,99743.30
2024-02-14T08:42:09.192Z,99745.63
2024-02-14T08:44:38.709Z,99741.68
2024-02-14T08:47:08.006Z,99741.65
2024-02-14T08:49:36.206Z,99741.69
2024-02-14T08:52:04.275Z,99742.55
2024-02-14T08:54:34.102Z,99740.36
2024-02-14T08:57:02.212Z,99737.09
2024-02-14T08:59:30.169Z,99741.32
2024-02-14T09:01:58.063Z,99739.73
2024-02-14T09:04:25.840Z,99744.70
2024-02-14T09:06:53.738Z,99742.98
2024-02-14T09:09:21.818Z,99744.06
2024-02-14T09:11:49.637Z,99744.27
2024-02-14T09:14:17.492Z,99740.34
2024-02-14T09:16:47.133Z,99738.82
2024-02-14T09:19:15.064Z,99745.23
2024-02-14T09:21:43.226Z,99746.20
2024-02-14T09:24:11.275Z,99745.70
2024-02-14T09:26:39.392Z,99751.51
2024-02-14T09:29:07.480Z,99752.69
2024-02-14T09:31:35.302Z,99753.11
2024-02-14T09:34:03.285Z,99751.54
2024-02-14T09:36:31.323Z,99751.32
2024-02-14T09:39:02.299Z,99754.05
2024-02-14T09:41:38.327Z,99755.80
2024-02-14T09:44:06.757Z,99753.02
2024-02-14T09:46:37.246Z,99755.85
2024-02-14T09:49:07.041Z,99757.78
2024-02-14T09:51:35.376Z,99753.21
2024-02-14T09:54:04.883Z,99751.27
2024-02-14T09:56:33.687Z,99755.88
2024-02-14T09:59:03.992Z,99752.23
2024-02-14T10:01:32.429Z,99748.09
2024-02-14T10:04:00.358Z,99745.19
2024-02-14T10:06:28.701Z,99742.76
2024-02-14T10:09:03.412Z,99741.69
2024-02-14T10:11:34.263Z,99740.72
2024-02-14T10:14:05.299Z,99739.79
2024-02-14T10:16:33.664Z,99742.17
2024-02-14T10:19:01.809Z,99742.20
2024-02-14T10:21:32.915Z,99741.46
2024-02-14T10:24:02.076Z,99737.88
2024-02-14T10:26:31.318Z,99737.66
2024-02-14T10:28:59.340Z,99739.33
2024-02-14T10:31:28.081Z,99738.50
2024-02-14T10:33:58.160Z,99739.11
2024-02-14T10:36:26.566Z,99737.03
2024-02-14T10:38:55.587Z,99731.54
2024-02-14T10:41:24.036Z,99730.55
2024-02-14T10:43:51.856Z,99731.65
2024-02-14T10:46:26.423Z,99733.02
2024-02-14T10:48:59.946Z,99737.02
2024-02-14T10:51:32.032Z,99731.05
2024-02-14T10:54:02.264Z,99729.01
2024-02-14T10:56:34.309Z,99729.60
2024-02-14T10:59:03.864Z,99730.27
2024-02-14T11:03:36.709Z,99729.28
2024-02-14T11:06:05.889Z,99726.52
2024-02-14T11:08:36.682Z,99720.52
2024-02-14T11:11:07.444Z,99721.58
2024-02-14T11:13:36.780Z,99719.73
2024-02-14T11:16:08.412Z,99719.52
2024-02-14T11:18:37.672Z,99717.52
2024-02-14T11:21:06.331Z,99711.90
2024-02-14T11:23:34.389Z,99709.55
2024-02-14T11:26:04.390Z,99706.73
2024-02-14T11:28:32.369Z,99708.27
2024-02-14T11:31:04.507Z,99709.25
2024-02-14T11:33:32.758Z,99706.32
2024-02-14T11:36:08.962Z,99703.46
2024-02-14T11:38:36.950Z,99703.34
2024-02-14T11:41:05.043Z,99705.20
2024-02-14T11:43:33.072Z,99702.05
2024-02-14T11:46:01.616Z,99697.70
2024-02-14T11:48:30.172Z,99700.39
2024-02-14T11:50:58.175Z,99696.98
2024-02-14T11:53:26.330Z,99696.63
2024-02-14T11:55:54.136Z,99697.58
2024-02-14T11:58:21.979Z,99703.30
2024-02-14T12:00:52.458Z,99703.31
2024-02-14T12:03:23.193Z,99702.88
2024-02-14T12:05:54.048Z,99704.27
2024-02-14T12:08:23.625Z,99710.23
2024-02-14T12:10:51.815Z,99709.71
2024-02-14T12:13:22.554Z,99708.96
2024-02-14T12:15:52.421Z,99709.40
2024-02-14T12:18:22.167Z,99714.08
2024-02-14T12:20:55.644Z,99714.15
2024-02-14T12:23:27.662Z,99711.15
2024-02-14T12:26:03.493Z,99712.92
2024-02-14T12:28:32.740Z,99709.45
2024-02-14T12:31:00.701Z,99713.23
2024-02-14T12:33:29.162Z,99711.14
2024-02-14T12:35:58.827Z,99712.62
2024-02-14T12:38:26.776Z,99713.52
2024-02-14T12:40:55.524Z,99709.75
2024-02-14T12:43:23.565Z,99709.42
2024-02-14T12:45:51.633Z,99709.63
2024-02-14T12:48:29.666Z,99709.27
2024-02-14T12:50:59.329Z,99710.09
2024-02-14T12:53:28.132Z,99707.36
2024-02-14T12:55:56.088Z,99703.37
2024-02-14T12:58:24.176Z,99705.30
2024-02-14T13:00:52.145Z,99706.17
2024-02-14T13:03:21.052Z,99704.33
2024-02-14T13:05:50.124Z,99702.77
2024-02-14T13:08:18.217Z,99701.30
2024-02-14T13:10:46.284Z,99700.25
2024-02-14T13:13:15.605Z,99694.21
2024-02-14T13:15:45.400Z,99697.89
2024-02-14T13:18:13.657Z,99693.39
2024-02-14T13:20:41.825Z,99690.38
2024-02-14T13:23:10.790Z,99689.40
2024-02-14T13:25:38.737Z,99689.45
2024-02-14T13:28:07.306Z,99689.11
2024-02-14T13:30:35.134Z,99688.89
2024-02-14T13:33:04.285Z,99689.80
2024-02-14T13:35:33.130Z,99692.68
2024-02-14T13:38:01.296Z,99690.77
2024-02-14T13:40:29.302Z,99692.67
2024-02-14T13:42:57.441Z,99697.27
2024-02-14T13:45:26.427Z,99693.12
2024-02-14T13:48:05.861Z,99694.59
2024-02-14T13:50:33.937Z,99695.77
2024-02-14T13:53:01.694Z,99695.98
2024-02-14T13:55:29.599Z,99695.23
2024-02-14T13:57:57.387Z,99696.27
2024-02-14T14:00:25.352Z,99699.54
2024-02-14T14:02:53.274Z,99700.48
2024-02-14T14:05:23.214Z,99697.63
2024-02-14T14:07:58.130Z,99700.21
2024-02-14T14:10:29.220Z,99696.98
2024-02-14T14:12:57.815Z,99701.70
2024-02-14T14:15:27.956Z,99701.99
2024-02-14T14:17:56.183Z,99705.37
2024-02-14T14:20:24.191Z,99706.02
2024-02-14T14:22:53.301Z,99699.39
2024-02-14T14:25:21.191Z,99699.88
2024-02-14T14:27:48.998Z,99700.16
2024-02-14T14:30:16.937Z,99702.52
2024-02-14T14:32:45.337Z,99696.80
2024-02-14T14:35:13.421Z,99695.24
2024-02-14T14:37:41.525Z,99697.70
2024-02-14T14:40:11.837Z,99693.69
2024-02-14T14:42:40.127Z,99697.16
2024-02-14T14:45:08.525Z,99697.30
2024-02-14T14:47:37.540Z,99700.55
2024-02-14T14:50:08.624Z,99705.89
2024-02-14T14:52:37.334Z,99708.44
2024-02-14T14:55:06.705Z,99708.19
2024-02-14T14:57:41.295Z,99707.34
2024-02-14T15:00:14.407Z,99707.33
2024-02-14T15:02:42.633Z,99709.38
2024-02-14T15:05:12.490Z,99711.15
2024-02-14T15:07:41.383Z,99709.67
2024-02-14T15:10:09.618Z,99711.11
2024-02-14T15:12:38.163Z,99710.67
2024-02-14T15:15:06.914Z,99708.60
2024-02-14T15:17:34.891Z,99707.67
2024-02-14T15:20:04.896Z,99710.16
2024-02-14T15:22:33.133Z,99707.50
2024-02-14T15:25:00.913Z,99709.33
2024-02-14T15:27:31.489Z,99709.96
2024-02-14T15:30:18.050Z,99716.77
2024-02-14T15:33:04.669Z,99716.73
2024-02-14T15:35:32.627Z,99713.70
2024-02-14T15:38:01.429Z,99715.57
2024-02-14T15:40:29.307Z,99715.84
2024-02-14T15:42:57.100Z,99713.15
2024-02-14T15:45:24.933Z,99715.71
2024-02-14T15:47:52.928Z,99712.35
2024-02-14T15:50:21.415Z,99714.58
2024-02-14T15:52:49.279Z,99717.66
2024-02-14T15:55:17.680Z,99716.79
2024-02-14T15:57:47.492Z,99717.22
2024-02-14T16:00:15.874Z,99720.36
2024-02-14T16:02:43.900Z,99724.07
2024-02-14T16:05:12.677Z,99726.01
2024-02-14T16:07:40.852Z,99726.23
2024-02-14T16:10:09.001Z,99730.39
2024-02-14T16:12:36.943Z,99732.20
2024-02-14T16:15:05.264Z,99731.47
2024-02-14T16:17:33.280Z,99730.85
2024-02-14T16:20:01.304Z,99731.77
2024-02-14T16:22:29.311Z,99732.38
2024-02-14T16:24:57.526Z,99731.91
2024-02-14T16:27:25.594Z,99736.66
2024-02-14T16:29:53.512Z,99738.13
2024-02-14T16:32:21.405Z,99746.61
2024-02-14T16:34:52.125Z,99746.20
2024-02-14T16:37:20.681Z,99748.07
2024-02-14T16:39:52.184Z,99751.00
2024-02-14T16:42:20.605Z,99753.20
2024-02-14T16:44:49.082Z,99755.55
2024-02-14T16:47:17.160Z,99755.58
2024-02-14T16:49:45.097Z,99754.95
2024-02-14T16:52:12.976Z,99752.36
2024-02-14T16:54:40.738Z,99750.45
2024-02-14T16:57:11.872Z,99751.55
2024-02-14T16:59:42.190Z,99757.17
2024-02-14T17:02:10.591Z,99757.02
2024-02-14T17:04:38.682Z,99755.69
2024-02-14T17:07:07.212Z,99757.44
2024-02-14T17:09:35.154Z,99758.49
2024-02-14T17:12:03.164Z,99754.92
2024-02-14T17:14:32.555Z,99753.95
2024-02-14T17:17:01.761Z,99752.64
2024-02-14T17:19:29.682Z,99756.86
2024-02-14T17:21:57.474Z,99754.23
2024-02-14T17:24:25.504Z,99753.48
2024-02-14T17:26:53.435Z,99756.41
2024-02-14T17:29:21.368Z,99757.83
2024-02-14T17:31:50.051Z,99759.27
2024-02-14T17:34:17.948Z,99760.80
2024-02-14T17:36:46.170Z,99758.66
2024-02-14T17:39:14.077Z,99755.10
2024-02-14T17:41:41.871Z,99758.30
2024-02-14T17:44:09.760Z,99760.48
2024-02-14T17:46:37.665Z,99764.26
2024-02-14T17:49:08.876Z,99761.45
2024-02-14T17:51:36.668Z,99757.30
2024-02-14T17:54:07.706Z,99756.93
2024-02-14T17:56:35.556Z,99759.63
2024-02-14T17:59:04.546Z,99758.48
2024-02-14T18:01:34.410Z,99768.19
2024-02-14T18:04:05.678Z,99767.33
2024-02-14T18:06:34.855Z,99771.85
2024-02-14T18:09:03.000Z,99771.94
2024-02-14T18:11:30.918Z,99771.44
2024-02-14T18:13:58.901Z,99771.45
2024-02-14T18:16:28.241Z,99769.31
2024-02-14T18:18:56.422Z,99767.87
2024-02-14T18:21:24.383Z,99771.48
2024-02-14T18:23:52.486Z,99773.81
2024-02-14T18:26:22.115Z,99773.70
2024-02-14T18:28:50.030Z,99774.87
2024-02-14T18:31:18.342Z,99770.54
2024-02-14T18:33:46.529Z,99772.84
2024-02-14T18:36:14.879Z,99770.15
2024-02-14T18:38:42.786Z,99770.27
2024-02-14T18:41:10.799Z,99769.84
2024-02-14T18:43:38.590Z,99765.75
2024-02-14T18:46:08.376Z,99760.86
2024-02-14T18:48:38.723Z,99761.54
2024-02-14T18:51:07.098Z,99759.01
2024-02-14T18:53:34.990Z,99759.50
2024-02-14T18:56:02.792Z,99761.89
2024-02-14T18:58:30.533Z,99760.79
2024-02-14T19:00:58.792Z,99759.41
2024-02-14T19:03:27.492Z,99763.21
2024-02-14T19:05:55.630Z,99766.02
2024-02-14T19:08:23.492Z,99762.20
2024-02-14T19:10:51.339Z,99759.92
2024-02-14T19:13:20.842Z,99766.62
2024-02-14T19:15:48.660Z,99772.93
2024-02-14T19:18:16.523Z,99771.98
2024-02-14T19:20:48.264Z,99775.71
2024-02-14T19:23:16.250Z,99771.37
2024-02-14T19:25:44.198Z,99771.80
2024-02-14T19:28:13.277Z,99771.14
2024-02-14T19:30:43.988Z,99772.55
2024-02-14T19:33:12.885Z,99773.30
2024-02-14T19:35:40.801Z,99775.61
2024-02-14T19:38:08.586Z,99773.52
2024-02-14T19:40:36.971Z,99775.96
2024-02-14T19:43:05.003Z,99779.47
2024-02-14T19:45:33.909Z,99780.17
2024-02-14T19:48:03.165Z,99780.67
2024-02-14T19:50:31.338Z,99780.17
2024-02-14T19:52:59.664Z,99783.24
2024-02-14T19:55:27.634Z,99784.31
2024-02-14T19:57:55.412Z,99782.38
2024-02-14T20:00:23.338Z,99779.10
2024-02-14T20:02:51.822Z,99782.30
2024-02-14T20:05:23.916Z,99783.73
2024-02-14T20:07:51.766Z,99782.40
2024-02-14T20:10:19.703Z,99778.46
2024-02-14T20:12:47.477Z,99775.39
2024-02-14T20:15:15.699Z,99776.77
2024-02-14T20:17:43.665Z,99781.13
2024-02-14T20:20:12.176Z,99775.23
2024-02-14T20:22:40.117Z,99776.14
2024-02-14T20:25:12.947Z,99774.81
2024-02-14T20:27:42.082Z,99779.06
2024-02-14T20:30:11.817Z,99780.67
2024-02-14T20:32:43.815Z,99782.59
2024-02-14T20:35:14.220Z,99783.19
2024-02-14T20:37:43.987Z,99785.11
2024-02-14T20:40:14.729Z,99785.11
2024-02-14T20:42:43.782Z,99785.50
2024-02-14T20:45:11.633Z,99779.48
2024-02-14T20:47:42.436Z,99776.44
2024-02-14T20:50:14.622Z,99777.48
2024-02-14T20:52:43.540Z,99775.04
2024-02-14T20:55:11.328Z,99774.08
2024-02-14T20:57:39.146Z,99773.63
2024-02-14T21:00:10.746Z,99778.27
2024-02-14T21:02:40.931Z,99777.64
2024-02-14T21:05:09.005Z,99773.50
2024-02-14T21:07:36.832Z,99773.36
2024-02-14T21:10:04.916Z,99773.19
2024-02-14T21:12:33.434Z,99773.79
2024-02-14T21:15:01.458Z,99774.20
2024-02-14T21:17:29.840Z,99772.39
2024-02-14T21:19:58.183Z,99775.38
2024-02-14T21:22:26.065Z,99773.48
2024-02-14T21:24:53.931Z,99773.18
2024-02-14T21:27:21.791Z,99772.14
2024-02-14T21:29:49.555Z,99766.41
2024-02-14T21:32:17.511Z,99766.26
2024-02-14T21:34:45.881Z,99765.93
2024-02-14T21:37:13.676Z,99765.23
2024-02-14T21:39:41.483Z,99763.27
2024-02-14T21:42:09.653Z,99767.05
2024-02-14T21:44:37.579Z,99765.10
2024-02-14T21:47:09.638Z,99761.55
2024-02-14T21:49:39.884Z,99761.23
2024-02-14T21:52:08.546Z,99759.35
2024-02-14T21:54:37.589Z,99755.73
2024-02-14T21:57:05.888Z,99753.38
2024-02-14T21:59:33.959Z,99749.84
2024-02-14T22:02:02.907Z,99752.95
2024-02-14T22:04:31.080Z,99754.65
2024-02-14T22:06:59.459Z,99760.91
2024-02-14T22:09:27.808Z,99754.73
2024-02-14T22:11:55.699Z,99759.50
2024-02-14T22:14:24.687Z,99756.02
2024-02-14T22:16:53.902Z,99759.61
2024-02-14T22:19:22.305Z,99757.02
2024-02-14T22:21:50.205Z,99759.20
2024-02-14T22:24:18.138Z,99758.02
2024-02-14T22:26:46.241Z,99759.22
2024-02-14T22:29:14.210Z,99760.91
2024-02-14T22:31:42.363Z,99757.75
2024-02-14T22:34:13.095Z,99760.39
2024-02-14T22:36:42.089Z,99760.61
2024-02-14T22:39:10.599Z,99757.33
2024-02-14T22:41:40.946Z,99761.27
2024-02-14T22:44:09.292Z,99757.77
2024-02-14T22:46:39.818Z,99754.29
2024-02-14T22:49:08.030Z,99747.81
2024-02-14T22:51:36.621Z,99745.38
2024-02-14T22:54:05.581Z,99746.21
2024-02-14T22:56:33.622Z,99741.67
2024-02-14T22:59:01.910Z,99742.30
2024-02-14T23:01:29.844Z,99738.12
2024-02-14T23:03:57.771Z,99738.27
2024-02-14T23:06:28.005Z,99737.42
2024-02-14T23:08:55.906Z,99735.67
2024-02-14T23:11:27.642Z,99734.29
2024-02-14T23:13:55.972Z,99735.73
2024-02-14T23:16:23.847Z,99732.49
2024-02-14T23:18:52.415Z,99735.82
2024-02-14T23:21:22.079Z,99732.98
2024-02-14T23:23:50.060Z,99735.58
2024-02-14T23:26:18.056Z,99737.30
2024-02-14T23:28:45.915Z,99739.56
2024-02-14T23:31:16.611Z,99733.95
2024-02-14T23:33:44.884Z,99732.92
2024-02-14T23:36:13.024Z,99731.61
2024-02-14T23:38:40.971Z,99731.65
2024-02-14T23:41:08.874Z,99734.71
2024-02-14T23:43:36.842Z,99733.51
2024-02-14T23:46:04.840Z,99732.52
2024-02-14T23:48:33.536Z,99734.95
2024-02-14T23:51:01.624Z,99732.83
2024-02-14T23:53:29.689Z,99735.96
2024-02-14T23:55:58.162Z,99736.83
2024-02-14T23:58:26.147Z,99740.10
